Time;durP1;ratioP1;P1;durP2;ratioP2;P2;SDS_P1;SDS_P2;PMS_P1;PMS_P2;Temp;Humidity;BMP_temperature;BMP_pressure;BME280_temperature;BME280_humidity;BME280_pressure;Samples;Min_cycle;Max_cycle;Signal;HPM_P1;HPM_P2
2023/11/05 00:01:14;;;;;;;12.50;4.70;;;;;;;18.58;67.59;98172.11;105533;1260;63774;-57
2023/11/05 00:03:43;;;;;;;11.90;4.60;;;;;;;18.59;67.69;98164.40;105964;1261;60536;-65
2023/11/05 00:06:11;;;;;;;16.00;6.20;;;;;;;18.57;67.89;98163.67;105308;1261;61897;-58
2023/11/05 00:08:39;;;;;;;15.60;6.10;;;;;;;18.55;68.07;98171.35;104840;1260;63673;-57
2023/11/05 00:11:06;;;;;;;11.70;5.70;;;;;;;18.51;68.21;98169.33;105449;1261;61419;-57
2023/11/05 00:13:34;;;;;;;14.60;4.40;;;;;;;18.50;68.36;98160.25;104776;1260;62548;-55
2023/11/05 00:16:02;;;;;;;14.00;4.70;;;;;;;18.50;68.57;98145.17;104802;1260;60522;-55
2023/11/05 00:18:29;;;;;;;12.90;5.40;;;;;;;18.51;68.64;98130.98;105286;1259;60513;-54
2023/11/05 00:20:57;;;;;;;11.70;4.80;;;;;;;18.52;68.72;98126.68;105171;1259;63710;-56
2023/11/05 00:23:25;;;;;;;14.70;4.90;;;;;;;18.53;68.91;98124.47;105503;1262;60364;-56
2023/11/05 00:25:53;;;;;;;12.70;4.60;;;;;;;18.51;69.13;98126.71;105446;1262;63769;-55
2023/11/05 00:28:21;;;;;;;10.00;4.80;;;;;;;18.47;69.23;98125.17;106087;1260;60341;-55
2023/11/05 00:30:48;;;;;;;9.20;4.10;;;;;;;18.43;69.33;98121.68;105349;1262;59850;-57
2023/11/05 00:33:16;;;;;;;9.70;4.10;;;;;;;18.42;69.11;98116.44;104811;1264;65006;-57
2023/11/05 00:35:45;;;;;;;13.20;4.30;;;;;;;18.41;69.25;98106.55;106029;1258;61361;-56
2023/11/05 00:38:12;;;;;;;10.70;4.50;;;;;;;18.40;69.45;98105.04;105084;1261;62500;-55
2023/11/05 00:40:40;;;;;;;13.70;3.80;;;;;;;18.39;69.23;98106.46;106006;1261;60574;-55
2023/11/05 00:43:08;;;;;;;12.30;4.40;;;;;;;18.35;69.37;98115.11;104695;1261;60309;-58
2023/11/05 00:45:35;;;;;;;11.20;3.80;;;;;;;18.30;69.31;98116.92;105167;1259;65105;-52
2023/11/05 00:48:03;;;;;;;11.90;3.40;;;;;;;18.27;69.53;98120.13;106695;1260;61552;-54
2023/11/05 00:50:31;;;;;;;9.10;3.90;;;;;;;18.23;69.80;98118.70;104953;1259;62530;-54
2023/11/05 00:52:58;;;;;;;11.10;3.70;;;;;;;18.22;69.51;98117.80;104938;1261;60465;-55
2023/11/05 00:55:26;;;;;;;12.60;3.00;;;;;;;18.21;69.35;98114.80;104979;1260;60386;-55
2023/11/05 00:57:54;;;;;;;10.70;2.80;;;;;;;18.19;69.45;98104.22;105293;1261;63709;-57
2023/11/05 01:00:21;;;;;;;9.80;3.20;;;;;;;18.18;69.42;98095.19;105177;1261;61454;-58
2023/11/05 01:02:53;;;;;;;8.60;2.40;;;;;;;18.14;69.54;98096.15;104966;1261;62593;-55
2023/11/05 01:05:21;;;;;;;7.40;2.50;;;;;;;18.10;69.62;98090.27;105808;1261;60366;-58
2023/11/05 01:07:49;;;;;;;7.00;2.30;;;;;;;18.12;69.59;98081.89;106138;1265;60394;-57
2023/11/05 01:10:17;;;;;;;10.60;2.70;;;;;;;18.15;69.39;98076.85;105478;1259;64981;-57
2023/11/05 01:12:44;;;;;;;10.80;2.60;;;;;;;18.16;69.23;98079.45;106040;1258;61944;-58
2023/11/05 01:15:12;;;;;;;7.50;2.30;;;;;;;18.18;69.04;98075.77;105666;1260;63807;-55
2023/11/05 01:17:39;;;;;;;7.80;2.80;;;;;;;18.17;69.32;98076.81;104786;1260;62777;-54
2023/11/05 01:20:08;;;;;;;5.80;2.10;;;;;;;18.13;69.52;98070.91;104745;1265;60446;-54
2023/11/05 01:22:36;;;;;;;7.70;2.20;;;;;;;18.08;69.73;98070.99;105376;1258;63878;-53
2023/11/05 01:25:05;;;;;;;7.40;2.70;;;;;;;18.03;69.81;98070.13;105020;1260;60475;-54
2023/11/05 01:27:33;;;;;;;6.60;2.50;;;;;;;17.98;70.01;98070.50;104732;1263;63758;-56
2023/11/05 01:30:00;;;;;;;10.50;3.00;;;;;;;17.93;70.16;98065.99;104725;1261;60563;-54
2023/11/05 01:32:28;;;;;;;6.10;2.60;;;;;;;17.88;70.41;98068.69;102354;1260;3217243;-55
2023/11/05 01:36:54;;;;;;;14.50;3.70;;;;;;;17.60;71.68;98068.96;102694;1287;601749;-56
2023/11/05 01:39:22;;;;;;;5.70;2.80;;;;;;;17.74;71.15;98067.92;104589;1267;59417;-55
2023/11/05 01:44:16;;;;;;;8.60;3.70;;;;;;;17.53;71.93;98115.27;102042;1293;599685;-55
2023/11/05 01:46:44;;;;;;;1.90;0.40;;;;;;;17.40;72.48;98202.09;104449;1269;59289;-56
2023/11/05 01:49:12;;;;;;;1.30;0.10;;;;;;;16.85;64.05;98206.11;105517;1266;59165;-56
2023/11/05 01:51:39;;;;;;;1.70;0.30;;;;;;;16.26;64.32;98209.05;104804;1274;63270;-55
2023/11/05 01:54:12;;;;;;;2.80;0.20;;;;;;;15.73;64.39;98210.93;105338;1267;61326;-53
2023/11/05 01:56:39;;;;;;;0.50;0.10;;;;;;;15.29;64.92;98195.42;105146;1270;63693;-54
2023/11/05 01:59:07;;;;;;;0.10;0.00;;;;;;;14.97;65.41;98192.48;103355;1269;60193;-55
2023/11/05 02:01:35;;;;;;;0.50;0.00;;;;;;;14.73;65.70;98195.34;104773;1269;59247;-55
2023/11/05 02:04:02;;;;;;;1.80;0.10;;;;;;;14.58;66.25;98203.95;104504;1269;59368;-56
2023/11/05 02:06:30;;;;;;;0.30;0.10;;;;;;;14.48;66.51;98208.81;104783;1270;61793;-55
2023/11/05 02:08:58;;;;;;;1.40;0.10;;;;;;;14.42;66.85;98223.37;104771;1267;63842;-56
2023/11/05 02:11:25;;;;;;;1.80;0.10;;;;;;;14.33;66.80;98231.70;105736;1267;59653;-56
2023/11/05 02:13:54;;;;;;;0.80;0.10;;;;;;;14.26;66.77;98279.13;104752;1269;59823;-56
2023/11/05 02:16:23;;;;;;;0.30;0.00;;;;;;;14.11;66.93;98300.84;105822;1264;64561;-56
2023/11/05 02:18:51;;;;;;;2.70;0.10;;;;;;;13.97;67.35;98306.34;105578;1269;62521;-55
2023/11/05 02:21:43;;;;;;;1.50;0.10;;;;;;;13.90;67.81;98301.79;105690;1267;62636;-56
2023/11/05 02:24:11;;;;;;;0.40;0.10;;;;;;;13.85;68.23;98296.92;105955;1264;59812;-57
2023/11/05 02:26:39;;;;;;;0.20;0.00;;;;;;;13.80;68.32;98301.42;104829;1269;59745;-56
2023/11/05 02:29:06;;;;;;;0.90;0.10;;;;;;;13.75;68.46;98304.92;104439;1269;64165;-56
2023/11/05 02:31:34;;;;;;;1.40;0.10;;;;;;;13.73;68.44;98307.03;104589;1269;61374;-56
2023/11/05 02:34:03;;;;;;;0.60;0.20;;;;;;;13.73;68.40;98313.98;105093;1269;62485;-50
2023/11/05 02:36:31;;;;;;;3.20;0.10;;;;;;;13.71;68.32;98320.41;105012;1269;59739;-54
2023/11/05 02:38:58;;;;;;;0.30;0.10;;;;;;;13.68;68.61;98330.48;104764;1266;59631;-55
2023/11/05 02:41:26;;;;;;;0.20;0.00;;;;;;;13.67;68.73;98342.52;104880;1270;64119;-55
2023/11/05 02:43:54;;;;;;;0.70;0.10;;;;;;;13.66;68.79;98352.52;105228;1268;61554;-53
2023/11/05 02:46:21;;;;;;;1.30;0.00;;;;;;;13.70;68.87;98359.85;105790;1263;66228;-56
2023/11/05 02:48:49;;;;;;;0.80;0.00;;;;;;;13.74;68.71;98372.86;105990;1265;59756;-55
2023/11/05 02:51:17;;;;;;;0.20;0.00;;;;;;;13.75;68.64;98385.95;105771;1264;59329;-55
2023/11/05 02:53:45;;;;;;;2.50;0.10;;;;;;;13.72;68.61;98389.64;104726;1269;64603;-53
2023/11/05 02:56:13;;;;;;;1.20;0.10;;;;;;;13.65;68.70;98403.21;106331;1264;70341;-54
2023/11/05 02:58:41;;;;;;;0.00;0.00;;;;;;;13.57;68.82;98415.99;105334;1263;63672;-54
2023/11/05 03:01:10;;;;;;;2.10;0.20;;;;;;;13.47;68.86;98418.63;106025;1270;59752;-54
2023/11/05 03:03:38;;;;;;;0.70;0.20;;;;;;;13.42;68.99;98418.45;104819;1261;59809;-55
2023/11/05 03:06:06;;;;;;;0.30;0.10;;;;;;;13.41;69.11;98423.48;104986;1266;64123;-54
2023/11/05 03:08:34;;;;;;;0.50;0.10;;;;;;;13.42;69.27;98428.30;105072;1267;61411;-54
2023/11/05 03:11:01;;;;;;;2.10;0.30;;;;;;;13.42;69.31;98436.38;105136;1263;63775;-53
2023/11/05 03:13:29;;;;;;;3.10;0.30;;;;;;;13.40;69.44;98445.06;104829;1266;59749;-54
2023/11/05 03:15:57;;;;;;;0.70;0.10;;;;;;;13.37;69.48;98456.58;105082;1265;59644;-54
2023/11/05 03:18:24;;;;;;;1.10;0.20;;;;;;;13.34;69.52;98471.38;104907;1260;62823;-53
2023/11/05 03:20:52;;;;;;;1.70;0.20;;;;;;;13.31;69.49;98486.08;106103;1265;60162;-56
2023/11/05 03:23:20;;;;;;;0.80;0.20;;;;;;;13.30;69.67;98501.58;105920;1265;64309;-55
2023/11/05 03:25:48;;;;;;;0.90;0.20;;;;;;;13.30;69.77;98514.45;104752;1266;59659;-54
2023/11/05 03:28:15;;;;;;;1.10;0.10;;;;;;;13.27;69.67;98530.23;104807;1265;59618;-54
2023/11/05 03:30:43;;;;;;;0.30;0.00;;;;;;;13.22;69.59;98544.75;106571;1251;65504;-54
2023/11/05 03:33:10;;;;;;;2.40;0.10;;;;;;;13.14;69.87;98553.40;105410;1255;61344;-55
2023/11/05 03:35:38;;;;;;;1.40;0.10;;;;;;;13.08;70.08;98565.66;105525;1254;64315;-53
2023/11/05 03:38:06;;;;;;;0.60;0.10;;;;;;;13.05;70.11;98572.70;105666;1259;59778;-55
2023/11/05 03:40:33;;;;;;;2.40;0.10;;;;;;;13.05;70.18;98588.30;106628;1256;59752;-54
2023/11/05 03:43:01;;;;;;;1.10;0.20;;;;;;;13.08;70.14;98591.38;105452;1257;71079;-55
2023/11/05 03:45:29;;;;;;;1.80;0.20;;;;;;;13.08;70.15;98593.29;105351;1251;61492;-54
2023/11/05 03:47:57;;;;;;;1.30;0.30;;;;;;;13.04;69.95;98597.59;105492;1254;63720;-55
2023/11/05 03:50:25;;;;;;;0.70;0.20;;;;;;;12.98;69.99;98605.71;106467;1257;59752;-54
2023/11/05 03:52:52;;;;;;;0.30;0.10;;;;;;;12.91;69.92;98601.02;105683;1253;60385;-56
2023/11/05 03:55:20;;;;;;;0.40;0.10;;;;;;;12.88;69.78;98600.36;106958;1257;64721;-53
2023/11/05 03:57:47;;;;;;;0.40;0.10;;;;;;;12.85;69.74;98607.08;106666;1260;61818;-53
2023/11/05 04:00:16;;;;;;;1.10;0.20;;;;;;;12.84;69.77;98615.10;105480;1258;63749;-57
2023/11/05 04:02:43;;;;;;;1.70;0.20;;;;;;;12.83;69.57;98628.20;105975;1257;59608;-53
2023/11/05 04:05:14;;;;;;;0.80;0.20;;;;;;;12.79;69.53;98625.30;105352;1258;59660;-53
2023/11/05 04:07:42;;;;;;;0.20;0.10;;;;;;;12.73;69.53;98626.36;105460;1256;64167;-53
2023/11/05 04:10:10;;;;;;;1.10;0.20;;;;;;;12.71;69.60;98629.68;106035;1255;61476;-52
2023/11/05 04:12:38;;;;;;;1.20;0.30;;;;;;;12.72;69.69;98647.15;106000;1255;63757;-52
2023/11/05 04:15:06;;;;;;;0.70;0.20;;;;;;;12.75;69.48;98664.74;105481;1257;59771;-53
2023/11/05 04:17:34;;;;;;;1.70;0.40;;;;;;;12.79;69.62;98688.66;105478;1257;59759;-53
2023/11/05 04:20:04;;;;;;;1.50;0.20;;;;;;;12.83;69.33;98688.58;105593;1259;63212;-54
2023/11/05 04:22:33;;;;;;;3.30;0.40;;;;;;;12.82;69.13;98672.85;106185;1254;61368;-56
2023/11/05 04:25:01;;;;;;;2.70;0.40;;;;;;;12.77;69.23;98662.70;105620;1254;63686;-53
2023/11/05 04:27:29;;;;;;;2.60;0.30;;;;;;;12.72;69.28;98674.86;105419;1254;61184;-56
2023/11/05 04:29:56;;;;;;;1.30;0.30;;;;;;;12.72;69.34;98684.20;106251;1257;59561;-55
2023/11/05 04:32:24;;;;;;;3.20;0.60;;;;;;;12.74;69.21;98693.13;105390;1254;64038;-53
2023/11/05 04:34:51;;;;;;;0.80;0.20;;;;;;;12.76;68.99;98696.46;105449;1257;60226;-53
2023/11/05 04:37:19;;;;;;;1.40;0.30;;;;;;;12.75;68.97;98705.48;105457;1257;71365;-53
2023/11/05 04:39:47;;;;;;;2.30;0.50;;;;;;;12.73;68.89;98705.03;105428;1253;59736;-53
2023/11/05 04:42:14;;;;;;;0.60;0.10;;;;;;;12.70;68.88;98713.70;106922;1257;59269;-54
2023/11/05 04:44:42;;;;;;;0.70;0.20;;;;;;;12.69;68.86;98724.33;105416;1257;64608;-51
2023/11/05 04:47:10;;;;;;;1.40;0.20;;;;;;;12.71;68.89;98732.95;105510;1254;61313;-54
2023/11/05 04:49:37;;;;;;;0.90;0.10;;;;;;;12.74;68.87;98741.25;105419;1257;64223;-54
2023/11/05 04:52:05;;;;;;;0.90;0.30;;;;;;;12.76;68.82;98749.95;105451;1257;60520;-53
2023/11/05 04:54:33;;;;;;;1.50;0.30;;;;;;;12.74;68.82;98749.60;105618;1257;59625;-46
2023/11/05 04:57:00;;;;;;;1.40;0.20;;;;;;;12.72;69.01;98747.90;105523;1258;64159;-48
2023/11/05 04:59:28;;;;;;;2.60;0.20;;;;;;;12.71;69.06;98749.91;105494;1258;61353;-55
2023/11/05 05:01:57;;;;;;;3.00;0.30;;;;;;;12.75;68.99;98750.71;105475;1255;63786;-55
2023/11/05 05:04:25;;;;;;;2.70;0.30;;;;;;;12.82;68.85;98756.63;105761;1254;59648;-56
2023/11/05 05:06:55;;;;;;;1.30;0.30;;;;;;;12.87;68.63;98758.86;105723;1253;59845;-55
2023/11/05 05:09:23;;;;;;;0.90;0.30;;;;;;;12.87;68.57;98758.49;105403;1254;64261;-55
2023/11/05 05:11:51;;;;;;;1.50;0.20;;;;;;;12.86;68.60;98761.88;105806;1254;61383;-56
2023/11/05 05:14:18;;;;;;;1.10;0.20;;;;;;;12.83;68.59;98766.54;105304;1257;70716;-57
2023/11/05 05:16:46;;;;;;;0.70;0.20;;;;;;;12.87;68.59;98776.98;106468;1255;59848;-55
2023/11/05 05:19:14;;;;;;;2.20;0.30;;;;;;;12.95;68.54;98784.58;106635;1257;59545;-54
2023/11/05 05:21:43;;;;;;;1.80;0.50;;;;;;;13.01;68.38;98791.02;106020;1254;64682;-48
2023/11/05 05:24:11;;;;;;;2.00;0.40;;;;;;;13.04;68.20;98792.00;105894;1257;61610;-55
2023/11/05 05:26:39;;;;;;;1.40;0.30;;;;;;;13.02;68.15;98797.31;105822;1255;63778;-53
2023/11/05 05:29:07;;;;;;;1.50;0.40;;;;;;;12.99;67.86;98805.33;105440;1254;59794;-51
2023/11/05 05:31:35;;;;;;;1.80;0.40;;;;;;;12.95;67.55;98803.70;105724;1254;59845;-50
2023/11/05 05:34:03;;;;;;;1.80;0.20;;;;;;;12.93;67.50;98808.71;105358;1256;64141;-52
2023/11/05 05:36:30;;;;;;;2.00;0.50;;;;;;;12.92;67.43;98809.22;105289;1258;60115;-54
2023/11/05 05:38:58;;;;;;;1.90;0.40;;;;;;;12.93;67.62;98813.09;105572;1258;63730;-54
2023/11/05 05:41:25;;;;;;;1.20;0.30;;;;;;;12.92;67.81;98819.51;105971;1254;60424;-54
2023/11/05 05:43:54;;;;;;;2.00;0.50;;;;;;;12.90;67.88;98829.79;105553;1257;59703;-55
2023/11/05 05:46:22;;;;;;;1.60;0.50;;;;;;;12.88;67.86;98838.91;105854;1253;64142;-51
2023/11/05 05:48:50;;;;;;;1.20;0.30;;;;;;;12.85;67.81;98845.11;105515;1254;61566;-50
2023/11/05 05:51:18;;;;;;;2.00;0.30;;;;;;;12.84;66.77;98854.04;106134;1260;63825;-52
2023/11/05 05:53:46;;;;;;;2.00;0.50;;;;;;;12.80;66.33;98852.34;105383;1257;60505;-49
2023/11/05 05:56:13;;;;;;;1.30;0.30;;;;;;;12.76;66.25;98844.95;106278;1253;60830;-53
2023/11/05 05:58:44;;;;;;;2.10;0.40;;;;;;;12.71;66.45;98851.11;105827;1253;64991;-55
2023/11/05 06:01:12;;;;;;;1.20;0.40;;;;;;;12.66;66.51;98852.60;106694;1254;61817;-49
2023/11/05 06:03:40;;;;;;;1.20;0.30;;;;;;;12.61;66.67;98862.29;105335;1254;63746;-53
2023/11/05 06:06:07;;;;;;;3.90;0.70;;;;;;;12.61;66.60;98869.52;105472;1255;60675;-54
2023/11/05 06:08:35;;;;;;;2.10;0.50;;;;;;;12.63;66.64;98866.23;105739;1259;61744;-52
2023/11/05 06:11:03;;;;;;;1.60;0.40;;;;;;;12.66;66.64;98866.28;105428;1254;63790;-54
2023/11/05 06:13:31;;;;;;;2.60;0.50;;;;;;;12.70;66.73;98874.15;108600;1254;61391;-58
2023/11/05 06:15:58;;;;;;;1.40;0.40;;;;;;;12.70;66.67;98884.14;106986;1254;63718;-54
2023/11/05 06:18:26;;;;;;;1.30;0.30;;;;;;;12.66;66.58;98888.85;105483;1259;60460;-54
2023/11/05 06:20:54;;;;;;;2.30;0.50;;;;;;;12.60;66.57;98893.08;105821;1253;60478;-54
2023/11/05 06:23:22;;;;;;;1.80;0.40;;;;;;;12.60;66.57;98903.04;105377;1257;65379;-54
2023/11/05 06:25:49;;;;;;;1.50;0.30;;;;;;;12.63;66.56;98906.94;105359;1257;60657;-54
2023/11/05 06:28:17;;;;;;;2.20;0.60;;;;;;;12.66;66.62;98908.92;106589;1254;64100;-54
2023/11/05 06:30:44;;;;;;;1.20;0.30;;;;;;;12.68;66.58;98914.61;105340;1255;60568;-54
2023/11/05 06:33:13;;;;;;;2.40;0.60;;;;;;;12.67;66.60;98921.23;105407;1258;60466;-53
2023/11/05 06:35:41;;;;;;;2.20;0.60;;;;;;;12.63;66.62;98928.32;105967;1254;73878;-53
2023/11/05 06:38:09;;;;;;;2.60;0.40;;;;;;;12.61;66.72;98934.40;106202;1256;61348;-56
2023/11/05 06:40:36;;;;;;;2.00;0.50;;;;;;;12.65;66.66;98941.36;106330;1254;63769;-55
2023/11/05 06:43:04;;;;;;;3.10;0.50;;;;;;;12.69;66.56;98950.22;106007;1257;60690;-55
2023/11/05 06:45:31;;;;;;;2.30;0.70;;;;;;;12.72;66.66;98963.45;105453;1252;60546;-54
2023/11/05 06:47:59;;;;;;;2.20;0.50;;;;;;;12.71;66.54;98968.50;105336;1254;64842;-48
2023/11/05 06:50:27;;;;;;;3.00;0.50;;;;;;;12.69;66.71;98970.35;105591;1257;61379;-54
2023/11/05 06:52:54;;;;;;;2.70;0.60;;;;;;;12.68;67.05;98976.06;105080;1257;64281;-56
2023/11/05 06:55:22;;;;;;;2.80;0.50;;;;;;;12.68;66.85;98979.56;105141;1257;60898;-55
2023/11/05 06:57:50;;;;;;;1.90;0.50;;;;;;;12.72;66.62;98984.00;105653;1260;60818;-55
2023/11/05 07:00:20;;;;;;;1.40;0.40;;;;;;;12.80;66.63;98988.94;105272;1259;64895;-58
2023/11/05 07:02:48;;;;;;;2.20;0.50;;;;;;;12.86;66.63;98986.34;105606;1254;61458;-54
2023/11/05 07:05:16;;;;;;;3.10;0.70;;;;;;;12.88;66.43;98986.46;105790;1254;63768;-55
2023/11/05 07:07:45;;;;;;;1.70;0.40;;;;;;;12.85;66.20;98985.46;105326;1256;61042;-55
2023/11/05 07:10:13;;;;;;;1.70;0.40;;;;;;;12.79;66.07;98983.96;105607;1254;61363;-53
2023/11/05 07:12:44;;;;;;;2.80;0.60;;;;;;;12.74;66.04;98987.85;106168;1260;63720;-56
2023/11/05 07:15:13;;;;;;;1.50;0.50;;;;;;;12.76;66.09;98989.39;106712;1254;60747;-56
2023/11/05 07:17:41;;;;;;;1.60;0.50;;;;;;;12.81;65.98;98998.15;106814;1254;65990;-54
2023/11/05 07:20:14;;;;;;;2.10;0.40;;;;;;;12.86;65.91;98998.82;105212;1254;60460;-56
2023/11/05 07:22:43;;;;;;;1.60;0.40;;;;;;;12.90;65.94;98993.82;105419;1254;60555;-53
2023/11/05 07:25:11;;;;;;;2.00;0.70;;;;;;;12.94;65.95;98993.60;105394;1260;65387;-55
2023/11/05 07:27:39;;;;;;;2.00;0.50;;;;;;;12.96;65.91;98997.71;105423;1254;60504;-56
2023/11/05 07:30:10;;;;;;;4.60;1.20;;;;;;;12.97;65.70;99000.42;105646;1256;62863;-56
2023/11/05 07:32:39;;;;;;;3.90;0.70;;;;;;;13.02;65.58;98999.35;105765;1260;60454;-57
2023/11/05 07:35:07;;;;;;;3.70;0.80;;;;;;;13.10;65.25;98997.02;106020;1254;60642;-55
2023/11/05 07:37:35;;;;;;;2.10;0.40;;;;;;;13.19;65.12;98987.92;105566;1259;65022;-54
2023/11/05 07:40:06;;;;;;;2.40;0.60;;;;;;;13.25;64.76;98985.00;105719;1254;61669;-55
2023/11/05 07:42:36;;;;;;;2.30;0.80;;;;;;;13.27;64.56;98980.15;106965;1254;64740;-54
2023/11/05 07:45:05;;;;;;;2.30;0.60;;;;;;;13.28;64.60;98977.44;107222;1254;60535;-53
2023/11/05 07:47:33;;;;;;;2.40;0.60;;;;;;;13.29;64.55;98974.34;105642;1255;60459;-54
2023/11/05 07:50:01;;;;;;;3.00;0.50;;;;;;;13.37;64.29;98967.60;106808;1253;65002;-53
2023/11/05 07:52:29;;;;;;;1.60;0.50;;;;;;;13.48;63.92;98969.11;105865;1254;61405;-55
2023/11/05 07:54:57;;;;;;;2.60;0.70;;;;;;;13.59;63.70;98967.73;105526;1255;66571;-55
2023/11/05 07:57:26;;;;;;;2.30;0.70;;;;;;;13.67;63.56;98969.46;106148;1253;60545;-55
2023/11/05 07:59:54;;;;;;;2.10;0.60;;;;;;;13.69;63.16;98976.98;105610;1253;60504;-54
2023/11/05 08:02:21;;;;;;;2.30;0.70;;;;;;;13.71;63.02;98984.17;105584;1253;63736;-55
2023/11/05 08:04:49;;;;;;;2.60;0.50;;;;;;;13.72;62.78;98993.42;105868;1254;63303;-55
2023/11/05 08:07:17;;;;;;;2.60;0.50;;;;;;;13.75;62.40;98993.61;105409;1257;63765;-56
2023/11/05 08:09:44;;;;;;;2.20;0.60;;;;;;;13.79;62.24;98996.33;105314;1254;60545;-54
2023/11/05 08:12:12;;;;;;;3.50;0.70;;;;;;;13.80;62.12;98995.45;106018;1254;60547;-54
2023/11/05 08:14:39;;;;;;;2.70;0.70;;;;;;;13.82;62.23;98998.83;105276;1257;63921;-55
2023/11/05 08:17:07;;;;;;;2.30;0.60;;;;;;;13.84;61.95;99004.50;105177;1254;61447;-54
2023/11/05 08:19:34;;;;;;;1.60;0.50;;;;;;;13.85;61.97;99003.01;106122;1253;63780;-56
2023/11/05 08:22:03;;;;;;;3.50;0.50;;;;;;;13.85;61.45;99004.19;105459;1255;60576;-56
2023/11/05 08:24:31;;;;;;;2.20;0.70;;;;;;;13.90;61.47;99004.84;105517;1254;60631;-55
2023/11/05 08:26:58;;;;;;;3.50;0.70;;;;;;;13.99;61.20;99008.45;105517;1254;65005;-56
2023/11/05 08:29:27;;;;;;;3.70;0.80;;;;;;;14.05;60.81;99002.84;105453;1257;71289;-57
2023/11/05 08:31:55;;;;;;;3.80;0.60;;;;;;;14.11;60.55;98993.29;105299;1254;65286;-56
2023/11/05 08:34:23;;;;;;;2.70;0.70;;;;;;;14.17;60.55;98978.98;105757;1254;60428;-55
2023/11/05 08:36:51;;;;;;;3.70;0.90;;;;;;;14.24;60.47;98975.91;105923;1254;60437;-55
2023/11/05 08:39:19;;;;;;;5.00;0.70;;;;;;;14.33;60.10;98972.78;105955;1256;64855;-55
2023/11/05 08:41:48;;;;;;;3.30;0.90;;;;;;;14.42;60.03;98972.86;105905;1254;60552;-55
2023/11/05 08:44:16;;;;;;;2.70;0.80;;;;;;;14.55;59.56;98976.88;105915;1254;63727;-55
2023/11/05 08:46:44;;;;;;;3.60;0.90;;;;;;;14.67;59.19;98983.21;105346;1254;60571;-55
2023/11/05 08:49:12;;;;;;;3.20;0.90;;;;;;;14.73;59.31;98990.05;106031;1253;60389;-55
2023/11/05 08:51:40;;;;;;;3.30;0.80;;;;;;;14.76;59.21;98995.55;105531;1254;65509;-55
2023/11/05 08:54:08;;;;;;;3.30;0.80;;;;;;;14.79;58.71;99002.15;106789;1254;63321;-57
2023/11/05 08:56:38;;;;;;;2.60;0.60;;;;;;;14.80;58.27;98998.30;105494;1254;63707;-55
2023/11/05 08:59:06;;;;;;;3.50;0.60;;;;;;;14.81;57.81;98996.39;106190;1253;60476;-55
2023/11/05 09:01:34;;;;;;;2.60;0.70;;;;;;;14.82;57.43;99004.02;105444;1257;60967;-55
2023/11/05 09:04:04;;;;;;;2.20;0.70;;;;;;;14.82;57.51;99006.66;105667;1251;65194;-55
2023/11/05 09:06:32;;;;;;;2.80;0.60;;;;;;;14.83;57.65;98999.30;107838;1253;61382;-56
2023/11/05 09:09:00;;;;;;;2.10;0.60;;;;;;;14.90;57.76;98994.89;105835;1254;65992;-56
2023/11/05 09:11:27;;;;;;;2.70;0.60;;;;;;;15.04;57.92;98996.63;106148;1254;60514;-55
2023/11/05 09:13:55;;;;;;;3.40;1.00;;;;;;;15.15;57.99;98999.09;105449;1257;59515;-55
2023/11/05 09:16:24;;;;;;;1.80;0.50;;;;;;;15.25;57.98;99003.19;106367;1251;72569;-56
2023/11/05 09:18:51;;;;;;;1.40;0.50;;;;;;;15.33;57.61;99010.98;105206;1251;61923;-56
2023/11/05 09:21:20;;;;;;;2.10;0.70;;;;;;;15.36;57.52;99006.53;105362;1254;64292;-55
2023/11/05 09:23:48;;;;;;;1.90;0.60;;;;;;;15.39;57.57;99002.73;105432;1256;60488;-56
2023/11/05 09:26:15;;;;;;;2.10;0.50;;;;;;;15.44;57.41;99001.76;106047;1254;60450;-49
2023/11/05 09:28:43;;;;;;;2.50;0.50;;;;;;;15.50;57.04;99003.73;105541;1254;67110;-54
2023/11/05 09:31:12;;;;;;;1.40;0.50;;;;;;;15.54;56.65;99008.14;106167;1252;60463;-55
2023/11/05 09:33:40;;;;;;;1.50;0.40;;;;;;;15.59;56.55;99008.31;105274;1254;64187;-55
2023/11/05 09:36:08;;;;;;;0.80;0.40;;;;;;;15.70;56.34;99003.90;106218;1254;60568;-54
2023/11/05 09:38:36;;;;;;;3.10;0.60;;;;;;;15.86;55.63;99007.00;105765;1257;60464;-56
2023/11/05 09:41:04;;;;;;;1.80;0.50;;;;;;;15.94;54.54;99009.31;105181;1253;63872;-54
2023/11/05 09:43:32;;;;;;;2.30;0.50;;;;;;;15.97;54.16;99007.14;105378;1257;61312;-51
2023/11/05 09:46:00;;;;;;;2.10;0.50;;;;;;;16.00;54.29;99007.49;105334;1254;63728;-53
2023/11/05 09:48:27;;;;;;;2.80;0.50;;;;;;;16.01;54.27;99006.36;105301;1251;60364;-57
2023/11/05 09:50:55;;;;;;;2.50;0.80;;;;;;;16.02;54.70;99003.09;105496;1253;60648;-54
2023/11/05 09:53:26;;;;;;;2.00;0.70;;;;;;;16.06;54.96;99001.98;106024;1253;64995;-54
2023/11/05 09:55:54;;;;;;;1.70;0.40;;;;;;;16.13;54.64;98998.40;106547;1254;61356;-56
2023/11/05 09:58:22;;;;;;;1.80;0.50;;;;;;;16.16;54.13;98999.29;105677;1254;63756;-54
2023/11/05 10:00:51;;;;;;;2.60;0.60;;;;;;;16.19;54.20;98998.94;109282;1253;58514;-55
2023/11/05 10:03:19;;;;;;;4.90;0.90;;;;;;;16.28;53.94;98998.05;107091;1254;60302;-53
2023/11/05 10:05:47;;;;;;;2.10;0.70;;;;;;;16.36;54.36;98987.95;105885;1256;63646;-50
2023/11/05 10:08:15;;;;;;;1.40;0.40;;;;;;;16.47;54.33;98982.41;109276;1251;70184;-56
2023/11/05 10:10:44;;;;;;;1.90;0.60;;;;;;;16.59;54.09;98978.89;106206;1251;72881;-54
2023/11/05 10:13:13;;;;;;;2.50;0.60;;;;;;;16.66;52.96;98973.86;105210;1256;60692;-54
2023/11/05 10:15:41;;;;;;;2.60;0.60;;;;;;;16.70;52.65;98968.73;106033;1253;60722;-59
2023/11/05 10:18:14;;;;;;;1.10;0.30;;;;;;;16.78;52.83;98964.77;106031;1251;63760;-56
2023/11/05 10:20:49;;;;;;;1.60;0.50;;;;;;;16.84;52.79;98959.70;106774;1251;61988;-56
2023/11/05 10:23:17;;;;;;;2.30;0.60;;;;;;;16.89;52.53;98957.33;105827;1254;74743;-55
2023/11/05 10:25:47;;;;;;;2.40;0.60;;;;;;;16.89;52.09;98947.35;106701;1255;60478;-53
2023/11/05 10:28:14;;;;;;;4.00;0.50;;;;;;;16.92;51.72;98941.80;106215;1254;62607;-53
2023/11/05 10:30:45;;;;;;;1.60;0.30;;;;;;;16.93;51.20;98941.06;105474;1251;63713;-55
2023/11/05 10:33:13;;;;;;;2.50;0.60;;;;;;;16.96;51.44;98945.70;108479;1252;60304;-55
2023/11/05 10:35:41;;;;;;;2.50;0.60;;;;;;;17.02;51.35;98948.83;108512;1256;64193;-54
2023/11/05 10:38:09;;;;;;;1.90;0.50;;;;;;;17.09;51.00;98947.37;106045;1251;60439;-54
2023/11/05 10:40:40;;;;;;;2.80;0.50;;;;;;;17.14;50.96;98949.92;106400;1251;60966;-56
2023/11/05 10:43:07;;;;;;;1.80;0.40;;;;;;;17.19;50.99;98957.95;107463;1251;64800;-55
2023/11/05 10:45:35;;;;;;;1.30;0.40;;;;;;;17.26;51.40;98959.02;106516;1251;60581;-49
2023/11/05 10:48:03;;;;;;;1.80;0.50;;;;;;;17.33;51.50;98955.23;105609;1251;63712;-54
2023/11/05 10:50:30;;;;;;;1.70;0.50;;;;;;;17.35;51.00;98948.04;105428;1254;60450;-56
2023/11/05 10:52:59;;;;;;;1.60;0.40;;;;;;;17.40;50.60;98944.93;105227;1258;60379;-55
2023/11/05 10:55:34;;;;;;;1.30;0.40;;;;;;;17.46;50.42;98944.39;105666;1257;64916;-56
2023/11/05 10:58:03;;;;;;;3.80;0.70;;;;;;;17.55;50.27;98946.07;105717;1251;61401;-56
2023/11/05 11:00:57;;;;;;;2.20;0.40;;;;;;;17.62;49.86;98953.32;106434;1251;63926;-55
2023/11/05 11:03:25;;;;;;;2.90;0.40;;;;;;;17.68;49.51;98953.84;105953;1254;60526;-55
2023/11/05 11:05:56;;;;;;;1.70;0.40;;;;;;;17.73;49.46;98950.48;105835;1253;60344;-55
2023/11/05 11:08:26;;;;;;;2.00;0.50;;;;;;;17.78;49.32;98948.16;106988;1251;63644;-54
2023/11/05 11:11:13;;;;;;;0.50;0.20;;;;;;;17.81;48.98;98946.36;105977;1251;60819;-55
2023/11/05 11:13:48;;;;;;;3.20;0.50;;;;;;;17.83;48.89;98940.71;106214;1253;63746;-55
2023/11/05 11:16:20;;;;;;;2.10;0.30;;;;;;;17.85;49.09;98936.98;106015;1253;60555;-53
2023/11/05 11:18:50;;;;;;;1.10;0.30;;;;;;;17.90;49.43;98937.73;105988;1251;60757;-54
2023/11/05 11:21:18;;;;;;;2.00;0.50;;;;;;;17.96;49.38;98938.35;105836;1254;63682;-54
2023/11/05 11:23:46;;;;;;;1.70;0.40;;;;;;;17.96;49.18;98935.65;105774;1256;60399;-55
2023/11/05 11:26:22;;;;;;;3.30;0.70;;;;;;;17.92;49.29;98934.39;105901;1253;62497;-54
2023/11/05 11:28:54;;;;;;;2.40;0.40;;;;;;;17.86;49.37;98933.23;106491;1251;60354;-56
2023/11/05 11:31:22;;;;;;;2.60;0.40;;;;;;;17.81;49.56;98934.61;106093;1254;60536;-54
2023/11/05 11:33:50;;;;;;;2.00;0.50;;;;;;;17.85;49.86;98932.42;105459;1252;64978;-54